createdAt,value
2022-11-19T00:03:40.381Z,2.30
2022-11-19T00:09:33.792Z,2.30
2022-11-19T00:15:28.689Z,2.30
2022-11-19T00:21:22.225Z,2.20
2022-11-19T00:27:15.346Z,2.20
2022-11-19T00:33:10.167Z,2.10
2022-11-19T00:39:03.656Z,2.10
2022-11-19T00:44:57.056Z,2.10
2022-11-19T00:50:51.919Z,2.00
2022-11-19T00:56:45.415Z,2.00
2022-11-19T01:02:38.869Z,2.00
2022-11-19T01:08:33.697Z,2.00
2022-11-19T01:14:27.240Z,2.00
2022-11-19T01:20:20.745Z,2.00
2022-11-19T01:26:16.729Z,1.90
2022-11-19T01:32:10.218Z,1.90
2022-11-19T01:38:04.300Z,1.80
2022-11-19T01:44:01.273Z,1.90
2022-11-19T01:49:54.751Z,1.80
2022-11-19T01:55:49.298Z,1.80
2022-11-19T02:01:45.605Z,1.80
2022-11-19T02:07:42.674Z,1.80
2022-11-19T02:13:43.483Z,1.70
2022-11-19T02:20:08.718Z,1.70
2022-11-19T02:26:39.213Z,1.70
2022-11-19T02:32:36.706Z,1.60
2022-11-19T02:38:37.651Z,1.60
2022-11-19T02:44:53.266Z,1.60
2022-11-19T02:50:51.899Z,1.60
2022-11-19T02:56:52.409Z,1.50
2022-11-19T03:03:07.512Z,1.50
2022-11-19T03:09:02.498Z,1.50
2022-11-19T03:15:16.351Z,1.50
2022-11-19T03:21:14.877Z,1.40
2022-11-19T03:27:14.511Z,1.40
2022-11-19T03:33:11.808Z,1.40
2022-11-19T03:39:08.931Z,1.30
2022-11-19T03:45:10.450Z,1.30
2022-11-19T03:51:09.733Z,1.30
2022-11-19T03:57:04.064Z,1.30
2022-11-19T04:02:58.504Z,1.30
2022-11-19T04:08:51.735Z,1.20
2022-11-19T04:14:45.641Z,1.20
2022-11-19T04:20:40.460Z,1.20
2022-11-19T04:26:33.890Z,1.20
2022-11-19T04:32:27.406Z,1.20
2022-11-19T04:38:22.306Z,1.20
2022-11-19T04:44:15.750Z,1.10
2022-11-19T04:50:09.992Z,1.20
2022-11-19T04:56:05.057Z,1.10
2022-11-19T05:01:58.730Z,1.20
2022-11-19T05:07:52.403Z,1.10
2022-11-19T05:13:46.829Z,1.20
2022-11-19T05:19:40.273Z,1.10
2022-11-19T05:25:33.729Z,1.10
2022-11-19T05:31:28.538Z,1.00
2022-11-19T05:37:21.962Z,1.00
2022-11-19T05:43:15.044Z,1.10
2022-11-19T05:49:09.440Z,1.00
2022-11-19T05:55:03.207Z,1.10
2022-11-19T06:00:56.932Z,1.10
2022-11-19T06:06:51.759Z,1.10
2022-11-19T06:12:46.188Z,1.10
2022-11-19T06:18:39.386Z,1.10
2022-11-19T06:24:34.405Z,1.10
2022-11-19T06:30:28.517Z,1.10
2022-11-19T06:36:22.213Z,1.10
2022-11-19T06:42:34.272Z,1.10
2022-11-19T06:48:27.319Z,1.10
2022-11-19T06:54:20.873Z,1.10
2022-11-19T07:00:17.106Z,1.10
2022-11-19T07:06:10.716Z,1.10
2022-11-19T07:12:04.227Z,1.10
2022-11-19T07:17:59.111Z,1.10
2022-11-19T07:23:52.553Z,1.10
2022-11-19T07:29:45.984Z,1.10
2022-11-19T07:35:41.371Z,1.20
2022-11-19T07:41:52.454Z,1.20
2022-11-19T07:47:46.543Z,1.20
2022-11-19T07:53:43.114Z,1.30
2022-11-19T07:59:36.168Z,1.30
2022-11-19T08:05:29.598Z,1.40
2022-11-19T08:11:24.430Z,1.50
2022-11-19T08:17:31.800Z,1.50
2022-11-19T08:23:25.034Z,1.60
2022-11-19T08:29:21.916Z,1.60
2022-11-19T08:35:15.479Z,1.70
2022-11-19T08:41:26.061Z,1.80
2022-11-19T08:47:20.943Z,1.90
2022-11-19T08:53:14.344Z,1.90
2022-11-19T08:59:07.468Z,2.00
2022-11-19T09:05:02.255Z,2.00
2022-11-19T09:10:56.289Z,2.00
2022-11-19T09:16:49.482Z,2.10
2022-11-19T09:22:44.312Z,2.30
2022-11-19T09:28:37.609Z,2.40
2022-11-19T09:34:55.380Z,2.40
2022-11-19T09:40:54.317Z,2.70
2022-11-19T09:46:53.534Z,2.80
2022-11-19T09:52:50.239Z,2.90
2022-11-19T09:58:46.538Z,3.10
2022-11-19T10:04:39.560Z,3.20
2022-11-19T10:10:41.592Z,3.20
2022-11-19T10:16:50.135Z,3.40
2022-11-19T10:22:56.959Z,3.60
2022-11-19T10:36:23.491Z,3.80
2022-11-19T10:42:22.678Z,4.10
2022-11-19T10:48:22.204Z,4.20
2022-11-19T10:54:25.576Z,4.30
2022-11-19T11:00:20.060Z,4.50
2022-11-19T11:06:14.154Z,4.60
2022-11-19T11:12:34.899Z,4.70
2022-11-19T11:18:31.400Z,4.90
2022-11-19T11:24:33.754Z,5.00
2022-11-19T11:30:28.651Z,5.10
2022-11-19T11:36:26.742Z,5.30
2022-11-19T11:42:21.285Z,5.50
2022-11-19T11:48:22.272Z,5.40
2022-11-19T11:54:20.338Z,5.40
2022-11-19T12:00:29.393Z,5.50
2022-11-19T12:06:27.224Z,5.50
2022-11-19T12:12:32.115Z,5.60
2022-11-19T12:18:33.700Z,5.60
2022-11-19T12:24:47.062Z,5.90
2022-11-19T12:30:51.273Z,5.60
2022-11-19T12:36:52.621Z,5.60
2022-11-19T12:42:59.225Z,5.70
2022-11-19T12:49:05.166Z,6.00
2022-11-19T12:55:06.735Z,6.00
2022-11-19T13:01:04.976Z,6.20
2022-11-19T13:07:03.798Z,6.40
2022-11-19T13:12:59.302Z,6.10
2022-11-19T13:19:03.679Z,6.10
2022-11-19T13:25:01.030Z,6.00
2022-11-19T13:30:56.251Z,6.10
2022-11-19T13:37:02.071Z,5.90
2022-11-19T13:49:32.421Z,6.00
2022-11-19T13:55:35.960Z,6.10
2022-11-19T14:01:49.045Z,6.20
2022-11-19T14:08:13.907Z,6.10
2022-11-19T14:14:40.604Z,6.10
2022-11-19T14:20:54.579Z,6.10
2022-11-19T14:27:24.590Z,6.20
2022-11-19T14:33:44.329Z,6.10
2022-11-19T14:39:42.978Z,6.00
2022-11-19T14:45:36.587Z,5.80
2022-11-19T14:51:35.232Z,5.70
2022-11-19T14:57:33.568Z,5.60
2022-11-19T15:03:29.826Z,5.80
2022-11-19T15:10:00.446Z,5.60
2022-11-19T15:15:57.502Z,5.60
2022-11-19T15:22:18.639Z,5.50
2022-11-19T15:28:28.592Z,5.60
2022-11-19T15:35:09.876Z,5.50
2022-11-19T15:41:06.271Z,5.40
2022-11-19T15:47:02.824Z,5.50
2022-11-19T15:53:02.453Z,5.30
2022-11-19T15:58:56.925Z,5.20
2022-11-19T16:04:51.582Z,5.20
2022-11-19T16:11:09.129Z,5.20
2022-11-19T16:17:25.766Z,5.20
2022-11-19T16:23:21.659Z,5.10
2022-11-19T16:29:18.919Z,5.10
2022-11-19T16:35:13.753Z,5.10
2022-11-19T16:41:25.725Z,5.10
2022-11-19T16:47:27.484Z,5.10
2022-11-19T16:53:48.568Z,5.00
2022-11-19T16:59:42.331Z,4.90
2022-11-19T17:05:37.165Z,4.90
2022-11-19T17:12:08.437Z,5.00
2022-11-19T17:18:15.237Z,4.90
2022-11-19T17:24:14.495Z,4.80
2022-11-19T17:30:11.924Z,4.80
2022-11-19T17:36:05.739Z,4.80
2022-11-19T17:42:17.611Z,4.80
2022-11-19T17:48:18.252Z,4.80
2022-11-19T17:54:12.563Z,4.90
2022-11-19T18:00:08.610Z,4.90
2022-11-19T18:06:03.090Z,4.90
2022-11-19T18:11:56.580Z,4.90
2022-11-19T18:17:51.879Z,4.80
2022-11-19T18:23:46.135Z,4.80
2022-11-19T18:29:39.601Z,4.90
2022-11-19T18:35:34.437Z,4.90
2022-11-19T18:41:27.869Z,4.80
2022-11-19T18:47:23.694Z,4.80
2022-11-19T18:53:18.027Z,4.80
2022-11-19T18:59:12.796Z,4.80
2022-11-19T19:05:06.803Z,4.80
2022-11-19T19:11:15.408Z,4.80
2022-11-19T19:17:09.586Z,4.80
2022-11-19T19:23:03.256Z,4.80
2022-11-19T19:28:58.172Z,4.80
2022-11-19T19:34:51.590Z,4.90
2022-11-19T19:40:45.072Z,4.90
2022-11-19T19:46:39.921Z,4.80
2022-11-19T19:52:32.924Z,4.80
2022-11-19T19:58:28.096Z,4.80
2022-11-19T20:04:23.151Z,4.80
2022-11-19T20:10:17.173Z,4.80
2022-11-19T20:16:17.671Z,4.80
2022-11-19T20:22:13.217Z,4.80
2022-11-19T20:28:06.829Z,4.80
2022-11-19T20:34:02.183Z,4.80
2022-11-19T20:39:57.616Z,4.80
2022-11-19T20:45:51.340Z,4.70
2022-11-19T20:51:44.876Z,4.80
2022-11-19T20:57:39.347Z,4.70
2022-11-19T21:03:34.245Z,4.70
2022-11-19T21:09:28.056Z,4.60
2022-11-19T21:15:22.880Z,4.50
2022-11-19T21:21:18.184Z,4.40
2022-11-19T21:27:11.835Z,4.40
2022-11-19T21:33:06.705Z,4.30
2022-11-19T21:39:00.111Z,4.20
2022-11-19T21:44:53.551Z,4.30
2022-11-19T21:50:48.492Z,4.40
2022-11-19T21:56:41.927Z,4.40
2022-11-19T22:02:35.009Z,4.40
2022-11-19T22:08:32.495Z,4.50
2022-11-19T22:14:25.939Z,4.50
2022-11-19T22:20:19.540Z,4.20
2022-11-19T22:26:15.812Z,4.20
2022-11-19T22:32:09.417Z,4.20
2022-11-19T22:38:02.827Z,4.20
2022-11-19T22:43:57.758Z,4.20
2022-11-19T22:49:51.197Z,4.20
2022-11-19T22:55:44.872Z,4.10
2022-11-19T23:01:39.802Z,4.20
2022-11-19T23:07:33.917Z,4.20
2022-11-19T23:13:33.436Z,4.20
2022-11-19T23:19:28.234Z,4.20
2022-11-19T23:25:21.929Z,4.30
2022-11-19T23:31:18.083Z,4.40
2022-11-19T23:37:12.875Z,4.40
2022-11-19T23:43:06.568Z,4.40
2022-11-19T23:49:00.595Z,4.50
2022-11-19T23:54:55.000Z,4.30
